Time;durP1;ratioP1;P1;durP2;ratioP2;P2;SDS_P1;SDS_P2;PMS_P1;PMS_P2;Temp;Humidity;BMP_temperature;BMP_pressure;BME280_temperature;BME280_humidity;BME280_pressure;Samples;Min_cycle;Max_cycle;Signal;HPM_P1;HPM_P2
2020/12/18 00:00:43;;;;;;;21.63;12.90;;;;;;;;;;4996219;28;20197;-72
2020/12/18 00:03:08;;;;;;;21.10;12.37;;;;;;;;;;4999568;28;20331;-70
2020/12/18 00:05:33;;;;;;;27.10;14.20;;;;;;;;;;4997430;28;20274;-71
2020/12/18 00:07:59;;;;;;;22.57;12.33;;;;;;;;;;4993549;28;20755;-71
2020/12/18 00:10:26;;;;;;;27.57;12.73;;;;;;;;;;4993206;28;20553;-71
2020/12/18 00:12:52;;;;;;;28.67;13.63;;;;;;;;;;4993889;28;20307;-70
2020/12/18 00:15:17;;;;;;;23.50;12.73;;;;;;;;;;4993930;28;20653;-71
2020/12/18 00:17:42;;;;;;;27.60;12.83;;;;;;;;;;4995153;28;20207;-71
2020/12/18 00:20:07;;;;;;;23.53;12.20;;;;;;;;;;4992502;28;20182;-72
2020/12/18 00:22:32;;;;;;;23.03;13.13;;;;;;;;;;4995767;28;20194;-71
2020/12/18 00:24:58;;;;;;;23.03;13.33;;;;;;;;;;4991790;28;20190;-70
2020/12/18 00:27:23;;;;;;;20.37;13.47;;;;;;;;;;4990918;28;20207;-71
2020/12/18 00:29:48;;;;;;;24.90;13.40;;;;;;;;;;4991827;28;20241;-71
2020/12/18 00:32:13;;;;;;;22.70;13.00;;;;;;;;;;4999265;28;20186;-70
2020/12/18 00:34:38;;;;;;;18.83;13.33;;;;;;;;;;4994169;28;20183;-71
2020/12/18 00:37:03;;;;;;;19.80;12.80;;;;;;;;;;4991552;28;20203;-71
2020/12/18 00:39:29;;;;;;;24.73;13.30;;;;;;;;;;4991433;28;20190;-71
2020/12/18 00:41:54;;;;;;;26.93;13.77;;;;;;;;;;4995342;28;20627;-71
2020/12/18 00:44:19;;;;;;;27.07;12.87;;;;;;;;;;4991296;28;20234;-70
2020/12/18 00:46:45;;;;;;;22.63;13.17;;;;;;;;;;4994655;28;20214;-72
2020/12/18 00:49:10;;;;;;;21.30;13.53;;;;;;;;;;4991247;28;20557;-71
2020/12/18 00:51:35;;;;;;;23.43;13.80;;;;;;;;;;4995127;28;20257;-70
2020/12/18 00:54:00;;;;;;;23.73;12.83;;;;;;;;;;4997598;28;20379;-72
2020/12/18 00:56:25;;;;;;;25.80;12.73;;;;;;;;;;4990135;28;20692;-70
2020/12/18 00:58:50;;;;;;;21.27;13.00;;;;;;;;;;4993390;28;20811;-71
2020/12/18 01:01:16;;;;;;;22.40;12.83;;;;;;;;;;4994768;28;20484;-71
2020/12/18 01:03:41;;;;;;;28.87;14.40;;;;;;;;;;4990379;28;20191;-71
2020/12/18 01:06:07;;;;;;;24.37;14.87;;;;;;;;;;4995538;28;20576;-71
2020/12/18 01:08:32;;;;;;;26.27;13.33;;;;;;;;;;4991442;28;20284;-72
2020/12/18 01:11:00;;;;;;;17.67;12.27;;;;;;;;;;5000251;28;20295;-71
2020/12/18 01:13:25;;;;;;;19.57;12.30;;;;;;;;;;5001701;28;20182;-71
2020/12/18 01:15:50;;;;;;;22.90;13.70;;;;;;;;;;4997347;28;20179;-70
2020/12/18 01:18:16;;;;;;;24.33;12.60;;;;;;;;;;4995460;28;20286;-71
2020/12/18 01:20:41;;;;;;;16.70;12.57;;;;;;;;;;4997086;28;20182;-70
2020/12/18 01:23:06;;;;;;;20.73;12.57;;;;;;;;;;4992646;28;20241;-71
2020/12/18 01:25:31;;;;;;;22.40;12.43;;;;;;;;;;4998444;28;20562;-71
2020/12/18 01:27:56;;;;;;;22.40;12.23;;;;;;;;;;4994414;28;20363;-71
2020/12/18 01:30:21;;;;;;;19.77;12.43;;;;;;;;;;4996368;28;22110;-70
2020/12/18 01:32:47;;;;;;;24.53;13.27;;;;;;;;;;4998204;28;20178;-70
2020/12/18 01:35:12;;;;;;;24.83;13.30;;;;;;;;;;4995548;28;20656;-71
2020/12/18 01:37:37;;;;;;;24.40;12.83;;;;;;;;;;4998057;28;20211;-70
2020/12/18 01:40:02;;;;;;;24.63;13.57;;;;;;;;;;4994220;28;20265;-71
2020/12/18 01:42:27;;;;;;;20.23;13.23;;;;;;;;;;4997570;28;20245;-72
2020/12/18 01:44:53;;;;;;;21.43;13.30;;;;;;;;;;4997992;28;20270;-72
2020/12/18 01:47:31;;;;;;;21.77;12.23;;;;;;;;;;4999233;28;20198;-70
2020/12/18 01:49:59;;;;;;;21.80;12.03;;;;;;;;;;4997227;28;20180;-70
2020/12/18 01:52:24;;;;;;;22.87;13.23;;;;;;;;;;4995192;28;20181;-71
2020/12/18 01:54:54;;;;;;;21.80;13.00;;;;;;;;;;4994012;28;22028;-71
2020/12/18 01:57:19;;;;;;;20.30;12.57;;;;;;;;;;5004222;28;20249;-71
2020/12/18 01:59:45;;;;;;;25.70;13.43;;;;;;;;;;4993505;28;20317;-71
2020/12/18 02:02:10;;;;;;;20.43;12.07;;;;;;;;;;4997101;28;20175;-71
2020/12/18 02:04:35;;;;;;;20.73;13.23;;;;;;;;;;4993032;28;20191;-70
2020/12/18 02:07:02;;;;;;;23.77;12.60;;;;;;;;;;4998809;28;20253;-70
2020/12/18 02:09:27;;;;;;;22.10;12.47;;;;;;;;;;4994857;28;20191;-71
2020/12/18 02:11:53;;;;;;;21.17;13.20;;;;;;;;;;4997522;28;20265;-70
2020/12/18 02:14:19;;;;;;;26.03;13.27;;;;;;;;;;4994242;28;20236;-70
2020/12/18 02:16:44;;;;;;;26.50;11.73;;;;;;;;;;4999327;28;20180;-70
2020/12/18 02:19:10;;;;;;;25.57;12.77;;;;;;;;;;4993494;28;20442;-71
2020/12/18 02:21:36;;;;;;;22.30;12.67;;;;;;;;;;4996690;28;20190;-71
2020/12/18 02:24:01;;;;;;;25.77;12.93;;;;;;;;;;4993682;28;20188;-71
2020/12/18 02:26:26;;;;;;;18.73;12.17;;;;;;;;;;4995123;28;20660;-71
2020/12/18 02:28:51;;;;;;;24.40;12.00;;;;;;;;;;4993516;28;20210;-72
2020/12/18 02:31:17;;;;;;;21.97;12.60;;;;;;;;;;4999956;28;20199;-70
2020/12/18 02:33:42;;;;;;;23.17;10.93;;;;;;;;;;4992765;28;20187;-70
2020/12/18 02:36:08;;;;;;;23.70;11.70;;;;;;;;;;4992900;28;20263;-71
2020/12/18 02:38:33;;;;;;;27.13;13.47;;;;;;;;;;4993861;28;20210;-70
2020/12/18 02:40:59;;;;;;;18.97;12.33;;;;;;;;;;4996818;28;20254;-71
2020/12/18 02:43:24;;;;;;;26.33;11.43;;;;;;;;;;4993736;28;20183;-71
2020/12/18 02:45:49;;;;;;;26.70;12.07;;;;;;;;;;4997182;28;20316;-71
2020/12/18 02:48:15;;;;;;;30.53;13.00;;;;;;;;;;4992561;28;20561;-71
2020/12/18 02:50:40;;;;;;;28.00;12.20;;;;;;;;;;4999160;28;20222;-71
2020/12/18 02:53:18;;;;;;;25.17;11.70;;;;;;;;;;4991935;28;20223;-71
2020/12/18 02:55:43;;;;;;;23.20;12.23;;;;;;;;;;4992729;28;20254;-70
2020/12/18 02:58:09;;;;;;;22.03;12.17;;;;;;;;;;4991168;28;20602;-71
2020/12/18 03:00:35;;;;;;;25.17;12.23;;;;;;;;;;4998418;28;20191;-70
2020/12/18 03:03:00;;;;;;;28.10;12.00;;;;;;;;;;4995867;28;21838;-71
2020/12/18 03:05:25;;;;;;;31.63;12.97;;;;;;;;;;4997176;28;20191;-71
2020/12/18 03:07:50;;;;;;;25.47;11.20;;;;;;;;;;4994926;28;20671;-71
2020/12/18 03:10:15;;;;;;;31.33;11.73;;;;;;;;;;4995664;28;20203;-70
2020/12/18 03:12:41;;;;;;;19.63;11.10;;;;;;;;;;4995061;28;20657;-71
2020/12/18 03:15:06;;;;;;;22.33;11.50;;;;;;;;;;4995754;28;20185;-70
2020/12/18 03:17:31;;;;;;;19.93;10.83;;;;;;;;;;4994001;28;20755;-70
2020/12/18 03:19:56;;;;;;;26.90;11.90;;;;;;;;;;4994185;28;20175;-70
2020/12/18 03:22:21;;;;;;;22.43;10.47;;;;;;;;;;4995263;28;20221;-71
2020/12/18 03:24:46;;;;;;;26.20;12.23;;;;;;;;;;4993471;28;20194;-71
2020/12/18 03:27:12;;;;;;;22.43;11.77;;;;;;;;;;4990553;28;21520;-71
2020/12/18 03:29:37;;;;;;;26.37;12.17;;;;;;;;;;4992804;28;20187;-71
2020/12/18 03:32:02;;;;;;;21.43;10.67;;;;;;;;;;4997475;28;20871;-70
2020/12/18 03:34:27;;;;;;;31.70;11.43;;;;;;;;;;4990812;28;20175;-71
2020/12/18 03:36:52;;;;;;;25.30;13.70;;;;;;;;;;4993852;28;20921;-71
2020/12/18 03:39:17;;;;;;;23.83;11.33;;;;;;;;;;4991572;28;20183;-70
2020/12/18 03:41:43;;;;;;;19.83;10.93;;;;;;;;;;4996012;28;20191;-72
2020/12/18 03:44:08;;;;;;;23.60;10.67;;;;;;;;;;4994466;28;20183;-70
2020/12/18 03:46:33;;;;;;;21.57;10.90;;;;;;;;;;4996354;28;20769;-71
2020/12/18 03:48:58;;;;;;;21.17;10.20;;;;;;;;;;4991923;28;20228;-71
2020/12/18 03:51:23;;;;;;;18.00;10.57;;;;;;;;;;5001605;28;20708;-71
2020/12/18 03:53:48;;;;;;;29.80;11.60;;;;;;;;;;4994532;28;20233;-71
2020/12/18 03:56:14;;;;;;;24.13;10.53;;;;;;;;;;4992496;28;20804;-71
2020/12/18 03:58:39;;;;;;;23.47;10.20;;;;;;;;;;5030045;22;20729;-69
2020/12/18 04:01:04;;;;;;;21.00;11.07;;;;;;;;;;5035341;28;20229;-70
2020/12/18 04:03:29;;;;;;;17.20;9.70;;;;;;;;;;5032250;28;20170;-69
2020/12/18 04:05:54;;;;;;;26.23;13.10;;;;;;;;;;5033338;28;20563;-70
2020/12/18 04:08:20;;;;;;;19.77;10.47;;;;;;;;;;5021619;28;20194;-68
2020/12/18 04:10:45;;;;;;;22.80;10.27;;;;;;;;;;5026942;28;20210;-70
2020/12/18 04:13:10;;;;;;;16.43;9.27;;;;;;;;;;5011508;28;20175;-68
2020/12/18 04:15:39;;;;;;;27.43;12.83;;;;;;;;;;5014996;28;20170;-70
2020/12/18 04:18:04;;;;;;;20.47;11.10;;;;;;;;;;5013112;28;20195;-68
2020/12/18 04:20:29;;;;;;;20.27;9.93;;;;;;;;;;5010353;28;20696;-69
2020/12/18 04:22:54;;;;;;;20.97;10.30;;;;;;;;;;5012955;28;20186;-67
2020/12/18 04:25:20;;;;;;;22.97;10.60;;;;;;;;;;5011123;28;21713;-68
2020/12/18 04:27:45;;;;;;;21.73;11.37;;;;;;;;;;5009634;28;20307;-68
2020/12/18 04:30:10;;;;;;;26.07;9.93;;;;;;;;;;5010616;28;20198;-69
2020/12/18 04:32:35;;;;;;;22.50;11.03;;;;;;;;;;5015218;28;20232;-68
2020/12/18 04:35:00;;;;;;;21.13;10.80;;;;;;;;;;5024781;28;20273;-68
2020/12/18 04:37:26;;;;;;;21.70;9.53;;;;;;;;;;5015244;28;20186;-69
2020/12/18 04:39:51;;;;;;;17.27;9.60;;;;;;;;;;5012055;28;20259;-71
2020/12/18 04:42:18;;;;;;;20.60;8.70;;;;;;;;;;5014302;28;20182;-69
2020/12/18 04:44:43;;;;;;;22.90;9.47;;;;;;;;;;5016902;28;20550;-68
2020/12/18 04:47:09;;;;;;;21.87;9.40;;;;;;;;;;5021273;28;20175;-68
2020/12/18 04:49:35;;;;;;;19.83;8.87;;;;;;;;;;5015030;28;20225;-69
2020/12/18 04:52:07;;;;;;;21.10;10.17;;;;;;;;;;5018023;28;20588;-69
2020/12/18 04:54:34;;;;;;;22.00;9.07;;;;;;;;;;5014357;28;20198;-69
2020/12/18 04:57:01;;;;;;;18.67;10.27;;;;;;;;;;5017870;28;20224;-69
2020/12/18 04:59:27;;;;;;;18.83;9.03;;;;;;;;;;5015823;28;20940;-70
2020/12/18 05:01:52;;;;;;;22.20;9.37;;;;;;;;;;5015255;28;20193;-68
2020/12/18 05:04:19;;;;;;;18.93;8.77;;;;;;;;;;5015369;28;20252;-68
2020/12/18 05:06:44;;;;;;;23.63;9.70;;;;;;;;;;5028933;28;20670;-67
2020/12/18 05:09:09;;;;;;;20.93;8.27;;;;;;;;;;5014524;28;20206;-68
2020/12/18 05:11:34;;;;;;;16.13;8.70;;;;;;;;;;5015984;28;20214;-69
2020/12/18 05:14:00;;;;;;;10.93;6.93;;;;;;;;;;5015825;28;20205;-68
2020/12/18 05:16:25;;;;;;;18.77;8.83;;;;;;;;;;5023488;28;20186;-70
2020/12/18 05:18:55;;;;;;;19.30;7.63;;;;;;;;;;5014808;28;20633;-69
2020/12/18 05:21:20;;;;;;;20.10;8.87;;;;;;;;;;5014316;28;20240;-68
2020/12/18 05:23:46;;;;;;;17.90;7.93;;;;;;;;;;5014782;28;20211;-69
2020/12/18 05:26:12;;;;;;;17.67;8.27;;;;;;;;;;5014138;28;20182;-71
2020/12/18 05:28:38;;;;;;;16.37;7.60;;;;;;;;;;5016688;28;20277;-70
2020/12/18 05:31:08;;;;;;;16.03;7.67;;;;;;;;;;5012559;28;20226;-69
2020/12/18 05:33:33;;;;;;;10.43;6.40;;;;;;;;;;5013775;28;20248;-70
2020/12/18 05:35:58;;;;;;;18.23;7.17;;;;;;;;;;5014110;28;20265;-70
2020/12/18 05:38:23;;;;;;;15.83;7.07;;;;;;;;;;5012380;28;20210;-70
2020/12/18 05:40:48;;;;;;;13.97;6.50;;;;;;;;;;5017915;28;20218;-70
2020/12/18 05:43:14;;;;;;;14.67;6.97;;;;;;;;;;5016055;28;20187;-72
2020/12/18 05:45:39;;;;;;;14.90;6.67;;;;;;;;;;5023131;28;20563;-70
2020/12/18 05:48:05;;;;;;;17.40;7.97;;;;;;;;;;5015405;28;20348;-70
2020/12/18 05:50:31;;;;;;;20.03;6.80;;;;;;;;;;5021156;28;20240;-70
2020/12/18 05:52:57;;;;;;;17.80;8.67;;;;;;;;;;5017883;28;20635;-69
2020/12/18 05:55:23;;;;;;;20.53;8.90;;;;;;;;;;5013967;28;20285;-69
2020/12/18 05:57:49;;;;;;;12.20;6.70;;;;;;;;;;5013539;28;20222;-70
2020/12/18 06:00:14;;;;;;;12.20;6.27;;;;;;;;;;5013722;28;20187;-70
2020/12/18 06:02:42;;;;;;;11.60;6.13;;;;;;;;;;5013196;28;20182;-70
2020/12/18 06:05:07;;;;;;;18.70;6.97;;;;;;;;;;5013792;28;20185;-69
2020/12/18 06:07:35;;;;;;;18.50;7.13;;;;;;;;;;5017425;28;20264;-68
2020/12/18 06:10:01;;;;;;;17.70;6.30;;;;;;;;;;5014030;28;20182;-69
2020/12/18 06:12:26;;;;;;;16.90;6.63;;;;;;;;;;5013588;28;20567;-70
2020/12/18 06:14:51;;;;;;;16.37;8.40;;;;;;;;;;5012745;28;20186;-71
2020/12/18 06:17:24;;;;;;;19.80;6.47;;;;;;;;;;5018717;28;20177;-69
2020/12/18 06:19:57;;;;;;;15.63;7.10;;;;;;;;;;5015056;28;20179;-70
2020/12/18 06:22:22;;;;;;;14.53;6.30;;;;;;;;;;5020376;28;20260;-70
2020/12/18 06:24:47;;;;;;;15.13;6.40;;;;;;;;;;5014837;28;20179;-70
2020/12/18 06:27:15;;;;;;;11.93;5.23;;;;;;;;;;5013214;28;20222;-70
2020/12/18 06:29:40;;;;;;;13.10;6.83;;;;;;;;;;5018025;28;21900;-70
2020/12/18 06:32:24;;;;;;;15.13;6.03;;;;;;;;;;5018919;28;20209;-70
2020/12/18 06:34:49;;;;;;;19.37;6.63;;;;;;;;;;5019214;28;22575;-69
2020/12/18 06:37:40;;;;;;;15.20;6.23;;;;;;;;;;5019089;28;20312;-69
2020/12/18 06:40:06;;;;;;;14.63;6.37;;;;;;;;;;5018032;28;20198;-71
2020/12/18 06:42:31;;;;;;;13.37;6.40;;;;;;;;;;5016987;28;20183;-70
2020/12/18 06:44:57;;;;;;;15.60;6.43;;;;;;;;;;5012478;28;20269;-69
2020/12/18 06:47:25;;;;;;;13.03;6.87;;;;;;;;;;5012845;28;20202;-68
2020/12/18 06:50:05;;;;;;;12.47;8.37;;;;;;;;;;5015145;28;20566;-69
2020/12/18 06:52:40;;;;;;;17.03;8.53;;;;;;;;;;5027368;28;20197;-69
2020/12/18 06:55:06;;;;;;;17.60;9.37;;;;;;;;;;5011105;28;20190;-69
2020/12/18 06:57:31;;;;;;;19.00;10.20;;;;;;;;;;5014316;28;20675;-68
2020/12/18 07:00:15;;;;;;;18.37;9.80;;;;;;;;;;5011288;28;20186;-70
2020/12/18 07:02:40;;;;;;;21.03;10.67;;;;;;;;;;5013900;28;20241;-69
2020/12/18 07:05:05;;;;;;;19.47;10.73;;;;;;;;;;5010876;28;20553;-70
2020/12/18 07:07:40;;;;;;;20.90;10.30;;;;;;;;;;5009973;28;21931;-70
2020/12/18 07:10:05;;;;;;;19.83;10.27;;;;;;;;;;5012744;28;20280;-69
2020/12/18 07:12:30;;;;;;;18.03;10.30;;;;;;;;;;5012719;28;20178;-69
2020/12/18 07:14:56;;;;;;;17.07;9.60;;;;;;;;;;5014561;28;20701;-70
2020/12/18 07:17:21;;;;;;;17.57;10.80;;;;;;;;;;5016217;28;20284;-70
2020/12/18 07:19:46;;;;;;;17.00;9.77;;;;;;;;;;5013277;28;20186;-69
2020/12/18 07:22:12;;;;;;;19.57;10.67;;;;;;;;;;5012849;28;20198;-69
2020/12/18 07:24:37;;;;;;;22.20;12.90;;;;;;;;;;5012007;28;20186;-68
2020/12/18 07:27:02;;;;;;;16.57;10.43;;;;;;;;;;5013503;28;20186;-69
2020/12/18 07:29:27;;;;;;;19.07;10.43;;;;;;;;;;5011625;28;20190;-68
2020/12/18 07:31:55;;;;;;;23.50;11.50;;;;;;;;;;5018273;28;20279;-69
2020/12/18 07:34:20;;;;;;;22.33;11.60;;;;;;;;;;5013412;28;20273;-69
2020/12/18 07:36:45;;;;;;;19.80;10.93;;;;;;;;;;5009645;28;20663;-69
2020/12/18 07:39:10;;;;;;;19.97;11.67;;;;;;;;;;5010126;28;20198;-69
2020/12/18 07:41:35;;;;;;;16.80;11.80;;;;;;;;;;5011445;28;20183;-70
2020/12/18 07:44:07;;;;;;;22.93;12.13;;;;;;;;;;5010863;28;20221;-69
2020/12/18 07:46:34;;;;;;;22.87;12.63;;;;;;;;;;5011848;28;20194;-70
2020/12/18 07:49:06;;;;;;;17.80;11.90;;;;;;;;;;5010706;28;20672;-68
2020/12/18 07:51:31;;;;;;;22.40;12.40;;;;;;;;;;5024981;28;20246;-69
2020/12/18 07:53:57;;;;;;;22.20;12.03;;;;;;;;;;5009006;28;20708;-69
2020/12/18 07:56:23;;;;;;;20.47;11.83;;;;;;;;;;5005952;28;20934;-68
2020/12/18 07:58:52;;;;;;;22.50;12.37;;;;;;;;;;5004542;28;20296;-69
2020/12/18 08:01:17;;;;;;;22.10;13.33;;;;;;;;;;5007282;28;20660;-68
2020/12/18 08:03:44;;;;;;;19.53;12.17;;;;;;;;;;5006952;28;20598;-69
2020/12/18 08:06:14;;;;;;;18.90;12.77;;;;;;;;;;5006770;28;20197;-68
2020/12/18 08:08:40;;;;;;;25.77;12.23;;;;;;;;;;5010302;28;20332;-69
2020/12/18 08:11:12;;;;;;;19.03;12.70;;;;;;;;;;5010323;28;20217;-68
2020/12/18 08:13:37;;;;;;;19.73;11.93;;;;;;;;;;5009114;28;20202;-68
2020/12/18 08:16:09;;;;;;;24.23;13.40;;;;;;;;;;5018994;28;20174;-68
2020/12/18 08:18:35;;;;;;;20.47;12.63;;;;;;;;;;5022252;28;20212;-68
2020/12/18 08:21:00;;;;;;;25.43;13.30;;;;;;;;;;5023585;28;20190;-70
2020/12/18 08:23:26;;;;;;;24.00;13.47;;;;;;;;;;5012161;28;20643;-69
2020/12/18 08:25:52;;;;;;;22.17;12.90;;;;;;;;;;5009874;28;20233;-71
2020/12/18 08:28:18;;;;;;;23.93;13.47;;;;;;;;;;5009168;28;20209;-68
2020/12/18 08:30:44;;;;;;;26.00;13.13;;;;;;;;;;5012872;28;20203;-69
2020/12/18 08:33:11;;;;;;;24.37;12.70;;;;;;;;;;5007645;28;20181;-69
2020/12/18 08:35:36;;;;;;;22.37;13.23;;;;;;;;;;5011100;28;20656;-69
2020/12/18 08:38:08;;;;;;;20.03;12.97;;;;;;;;;;5007122;28;20334;-69
2020/12/18 08:40:39;;;;;;;21.57;13.60;;;;;;;;;;5009082;28;20711;-69
2020/12/18 08:43:04;;;;;;;20.70;13.87;;;;;;;;;;5011043;28;20678;-67
2020/12/18 08:45:29;;;;;;;22.00;13.37;;;;;;;;;;5010967;28;20261;-69
2020/12/18 08:47:55;;;;;;;22.87;12.57;;;;;;;;;;5011365;28;20293;-69
2020/12/18 08:50:20;;;;;;;21.27;12.60;;;;;;;;;;5011685;28;20755;-69
2020/12/18 08:52:47;;;;;;;18.70;12.07;;;;;;;;;;5013598;28;20671;-69
2020/12/18 08:55:12;;;;;;;18.90;11.70;;;;;;;;;;5009120;28;20179;-69
2020/12/18 08:57:37;;;;;;;24.83;12.17;;;;;;;;;;5010576;28;20234;-68
2020/12/18 09:00:08;;;;;;;19.00;11.60;;;;;;;;;;5014198;28;21853;-69
2020/12/18 09:02:35;;;;;;;20.47;12.77;;;;;;;;;;5013584;28;20206;-69
2020/12/18 09:05:10;;;;;;;17.30;10.60;;;;;;;;;;5016389;28;20206;-69
2020/12/18 09:07:49;;;;;;;16.70;12.10;;;;;;;;;;5015179;28;20201;-69
2020/12/18 09:10:14;;;;;;;21.47;11.67;;;;;;;;;;5012308;28;22317;-69
2020/12/18 09:12:43;;;;;;;22.03;11.63;;;;;;;;;;5009542;28;20286;-69
2020/12/18 09:15:22;;;;;;;13.27;10.43;;;;;;;;;;5012159;28;20611;-69
2020/12/18 09:17:57;;;;;;;15.97;11.63;;;;;;;;;;5012178;28;20691;-69
2020/12/18 09:20:24;;;;;;;16.23;10.73;;;;;;;;;;5007229;28;20270;-68
2020/12/18 09:22:56;;;;;;;13.83;9.93;;;;;;;;;;5011589;28;20266;-69
2020/12/18 09:25:21;;;;;;;13.73;10.07;;;;;;;;;;5009828;28;20186;-68
2020/12/18 09:27:53;;;;;;;14.50;10.00;;;;;;;;;;5008170;28;20198;-69
2020/12/18 09:30:25;;;;;;;15.93;9.37;;;;;;;;;;5011872;28;20202;-69
2020/12/18 09:33:13;;;;;;;13.87;9.03;;;;;;;;;;5013252;28;20191;-70
2020/12/18 09:35:39;;;;;;;13.53;9.43;;;;;;;;;;5018970;28;20181;-70
2020/12/18 09:38:04;;;;;;;12.70;7.13;;;;;;;;;;5010850;28;20227;-70
2020/12/18 09:40:30;;;;;;;12.60;7.43;;;;;;;;;;5012825;28;20261;-70
2020/12/18 09:42:55;;;;;;;10.87;8.10;;;;;;;;;;5012004;28;20182;-69
2020/12/18 09:45:20;;;;;;;10.47;6.90;;;;;;;;;;5015376;28;20177;-69
2020/12/18 09:47:46;;;;;;;10.30;7.00;;;;;;;;;;5011467;28;20203;-69
2020/12/18 09:50:11;;;;;;;9.20;7.27;;;;;;;;;;5014028;28;20183;-69
2020/12/18 09:52:36;;;;;;;10.70;7.33;;;;;;;;;;5016337;28;20248;-69
2020/12/18 09:55:01;;;;;;;8.30;6.50;;;;;;;;;;5011846;28;20189;-70
2020/12/18 09:59:54;;;;;;;14.83;6.50;;;;;;;;;;5017155;28;20711;-73
2020/12/18 10:02:22;;;;;;;10.57;6.80;;;;;;;;;;5016518;28;20186;-72
2020/12/18 10:04:47;;;;;;;8.27;5.97;;;;;;;;;;5016754;28;20182;-73
2020/12/18 10:07:13;;;;;;;14.33;7.57;;;;;;;;;;5013178;28;20201;-72
2020/12/18 10:09:38;;;;;;;11.77;7.17;;;;;;;;;;4997552;28;20620;-73
2020/12/18 10:12:03;;;;;;;12.57;7.27;;;;;;;;;;4996616;28;20320;-73
2020/12/18 10:14:28;;;;;;;9.90;5.93;;;;;;;;;;4997971;28;20550;-73
2020/12/18 10:16:53;;;;;;;9.73;6.20;;;;;;;;;;5003314;28;20191;-73
2020/12/18 10:19:18;;;;;;;14.13;6.90;;;;;;;;;;4997582;28;20687;-73
2020/12/18 10:21:44;;;;;;;6.97;5.67;;;;;;;;;;5000349;28;20186;-72
2020/12/18 10:24:09;;;;;;;11.37;5.73;;;;;;;;;;4996522;28;20314;-73
2020/12/18 10:26:34;;;;;;;10.60;6.57;;;;;;;;;;4999216;28;20433;-73
2020/12/18 10:28:59;;;;;;;7.60;5.37;;;;;;;;;;5001373;28;20264;-73
2020/12/18 10:31:24;;;;;;;8.10;5.73;;;;;;;;;;4998391;28;20210;-73
2020/12/18 10:33:49;;;;;;;9.60;6.07;;;;;;;;;;4998083;28;20179;-72
2020/12/18 10:36:14;;;;;;;9.10;6.45;;;;;;;;;;4999609;28;20225;-72
2020/12/18 10:38:40;;;;;;;10.00;5.95;;;;;;;;;;4995594;28;20241;-73
2020/12/18 10:41:05;;;;;;;8.85;5.55;;;;;;;;;;5001374;28;20218;-73
2020/12/18 10:43:30;;;;;;;8.90;5.00;;;;;;;;;;4977896;28;20175;-73
2020/12/18 10:45:55;;;;;;;12.57;5.88;;;;;;;;;;4997435;28;20428;-73
2020/12/18 10:48:20;;;;;;;12.87;5.13;;;;;;;;;;5000530;28;20203;-72
2020/12/18 10:50:45;;;;;;;8.95;5.07;;;;;;;;;;4996828;28;20468;-73
2020/12/18 10:53:11;;;;;;;7.93;4.97;;;;;;;;;;4998368;28;20257;-73
2020/12/18 10:55:36;;;;;;;11.18;5.57;;;;;;;;;;5001067;28;20183;-73
2020/12/18 10:58:01;;;;;;;8.23;4.45;;;;;;;;;;5003537;28;20209;-74
2020/12/18 11:00:26;;;;;;;8.90;5.15;;;;;;;;;;5001124;28;20679;-73
2020/12/18 11:02:51;;;;;;;7.97;4.82;;;;;;;;;;4998403;28;20699;-72
2020/12/18 11:05:17;;;;;;;7.55;4.90;;;;;;;;;;4995237;28;20394;-75
2020/12/18 11:07:42;;;;;;;11.40;4.70;;;;;;;;;;4998646;28;20655;-74
2020/12/18 11:10:07;;;;;;;7.88;4.13;;;;;;;;;;4997524;28;20206;-73
2020/12/18 11:12:32;;;;;;;10.90;4.57;;;;;;;;;;4999467;28;20240;-73
2020/12/18 11:14:57;;;;;;;6.73;4.20;;;;;;;;;;4993004;28;20244;-70
2020/12/18 11:17:22;;;;;;;8.50;4.53;;;;;;;;;;4999055;28;20187;-73
2020/12/18 11:19:48;;;;;;;7.20;4.30;;;;;;;;;;4998966;28;20183;-73
2020/12/18 11:22:13;;;;;;;8.48;4.32;;;;;;;;;;4993145;28;20183;-72
2020/12/18 11:24:38;;;;;;;10.40;4.40;;;;;;;;;;4993417;28;20743;-72
2020/12/18 11:27:03;;;;;;;11.07;4.77;;;;;;;;;;4995595;28;20241;-72
2020/12/18 11:29:28;;;;;;;10.38;5.18;;;;;;;;;;4977579;28;20781;-73
2020/12/18 11:31:54;;;;;;;9.93;4.10;;;;;;;;;;4996984;28;21776;-72
2020/12/18 11:34:20;;;;;;;6.97;3.67;;;;;;;;;;4994433;28;20183;-73
2020/12/18 11:36:45;;;;;;;8.50;3.42;;;;;;;;;;4998973;28;20240;-73
2020/12/18 11:39:10;;;;;;;7.85;4.03;;;;;;;;;;4995809;28;20648;-73
2020/12/18 11:41:35;;;;;;;6.38;3.72;;;;;;;;;;4995125;28;20277;-73
2020/12/18 11:44:01;;;;;;;7.13;3.65;;;;;;;;;;4994372;28;20265;-73
2020/12/18 11:46:26;;;;;;;5.95;3.80;;;;;;;;;;4997417;28;20191;-73
2020/12/18 11:48:51;;;;;;;7.38;3.63;;;;;;;;;;4994375;28;20278;-73
2020/12/18 11:51:16;;;;;;;9.05;3.58;;;;;;;;;;4998889;28;20227;-73
2020/12/18 11:53:42;;;;;;;6.55;3.55;;;;;;;;;;4993952;28;20182;-73
2020/12/18 11:56:07;;;;;;;8.10;3.88;;;;;;;;;;4995704;28;20175;-73
2020/12/18 11:58:33;;;;;;;8.55;3.15;;;;;;;;;;4996233;28;20223;-73
2020/12/18 12:00:58;;;;;;;8.65;3.88;;;;;;;;;;5001172;28;20179;-73
2020/12/18 12:03:23;;;;;;;6.60;2.80;;;;;;;;;;4977994;28;20178;-73
2020/12/18 12:05:49;;;;;;;6.05;3.90;;;;;;;;;;4996311;28;20202;-73
2020/12/18 12:08:14;;;;;;;5.07;3.45;;;;;;;;;;4999192;28;20199;-72
2020/12/18 12:10:39;;;;;;;4.78;2.78;;;;;;;;;;4995416;28;20211;-72
2020/12/18 12:13:04;;;;;;;5.97;3.45;;;;;;;;;;4989870;28;20182;-73
2020/12/18 12:15:30;;;;;;;5.32;2.78;;;;;;;;;;4994734;28;20715;-72
2020/12/18 12:17:55;;;;;;;5.30;2.38;;;;;;;;;;4998286;28;20248;-73
2020/12/18 12:20:20;;;;;;;6.35;3.00;;;;;;;;;;5001367;28;20195;-73
2020/12/18 12:22:46;;;;;;;13.73;3.90;;;;;;;;;;5001667;28;20550;-72
2020/12/18 12:25:11;;;;;;;5.90;2.85;;;;;;;;;;4995736;28;20175;-73
2020/12/18 12:27:37;;;;;;;7.25;2.75;;;;;;;;;;4996258;28;20198;-73
2020/12/18 12:30:02;;;;;;;8.63;3.53;;;;;;;;;;4996585;28;20179;-73
2020/12/18 12:32:27;;;;;;;4.15;2.30;;;;;;;;;;4997901;28;20690;-73
2020/12/18 12:34:53;;;;;;;9.65;2.70;;;;;;;;;;5000179;28;20207;-73
2020/12/18 12:37:18;;;;;;;4.60;2.42;;;;;;;;;;5004038;28;20518;-75
2020/12/18 12:39:43;;;;;;;7.70;3.22;;;;;;;;;;5001791;28;20205;-73
2020/12/18 12:42:08;;;;;;;5.13;2.83;;;;;;;;;;4998959;28;20187;-73
2020/12/18 12:44:33;;;;;;;7.70;2.60;;;;;;;;;;4997342;28;20401;-72
2020/12/18 12:46:59;;;;;;;7.80;2.88;;;;;;;;;;4997552;28;20179;-73
2020/12/18 12:49:24;;;;;;;4.85;2.67;;;;;;;;;;4997975;28;20579;-73
2020/12/18 12:51:53;;;;;;;5.72;2.55;;;;;;;;;;4996296;28;20218;-73
2020/12/18 12:54:18;;;;;;;4.93;2.75;;;;;;;;;;4993116;28;20179;-73
2020/12/18 12:56:43;;;;;;;3.80;2.63;;;;;;;;;;4998148;28;20183;-73
2020/12/18 12:59:09;;;;;;;9.13;2.83;;;;;;;;;;4992818;28;20207;-73
2020/12/18 13:01:34;;;;;;;5.38;2.28;;;;;;;;;;4997461;28;20213;-73
2020/12/18 13:03:59;;;;;;;6.55;2.80;;;;;;;;;;4996587;28;20182;-73
2020/12/18 13:06:25;;;;;;;6.07;2.28;;;;;;;;;;4997695;28;20240;-72
2020/12/18 13:08:50;;;;;;;7.43;2.72;;;;;;;;;;4980505;28;20683;-72
2020/12/18 13:11:15;;;;;;;6.28;2.67;;;;;;;;;;5000043;28;20462;-72
2020/12/18 13:13:41;;;;;;;6.32;2.38;;;;;;;;;;5001423;28;20171;-72
2020/12/18 13:16:06;;;;;;;7.63;2.40;;;;;;;;;;5002397;28;20205;-73
2020/12/18 13:18:31;;;;;;;4.60;2.40;;;;;;;;;;4998311;28;20215;-72
2020/12/18 13:20:56;;;;;;;9.82;2.80;;;;;;;;;;4999491;28;20652;-73
2020/12/18 13:23:21;;;;;;;6.75;2.25;;;;;;;;;;4998930;28;20194;-73
2020/12/18 13:25:47;;;;;;;6.25;2.58;;;;;;;;;;5002226;28;20629;-73
2020/12/18 13:28:12;;;;;;;4.70;1.87;;;;;;;;;;4999209;28;20222;-73
2020/12/18 13:30:39;;;;;;;4.38;2.88;;;;;;;;;;4982446;28;21318;-72
2020/12/18 13:33:04;;;;;;;5.20;2.25;;;;;;;;;;4999731;28;20187;-73
2020/12/18 13:35:30;;;;;;;5.82;2.53;;;;;;;;;;4998022;28;20182;-73
2020/12/18 13:37:55;;;;;;;4.20;2.20;;;;;;;;;;4998843;28;20909;-73
2020/12/18 13:40:20;;;;;;;5.57;2.50;;;;;;;;;;4997921;28;20202;-74
2020/12/18 13:42:45;;;;;;;5.05;1.83;;;;;;;;;;4997484;28;20190;-73
2020/12/18 13:45:10;;;;;;;5.78;2.45;;;;;;;;;;4998853;28;20211;-73
2020/12/18 13:47:37;;;;;;;5.40;2.13;;;;;;;;;;4998567;28;20183;-73
2020/12/18 13:50:02;;;;;;;3.97;2.72;;;;;;;;;;4999618;28;20182;-72
2020/12/18 13:52:27;;;;;;;5.07;2.97;;;;;;;;;;4981313;28;21092;-73
2020/12/18 13:54:52;;;;;;;4.28;2.65;;;;;;;;;;4998650;28;20329;-72
2020/12/18 13:57:17;;;;;;;5.68;2.05;;;;;;;;;;4997079;28;20179;-73
2020/12/18 13:59:43;;;;;;;3.43;1.97;;;;;;;;;;4995676;28;20235;-73
2020/12/18 14:02:08;;;;;;;5.50;1.80;;;;;;;;;;4999127;28;20282;-73
2020/12/18 14:04:33;;;;;;;3.67;1.40;;;;;;;;;;4998065;28;20193;-73
2020/12/18 14:06:59;;;;;;;4.17;1.77;;;;;;;;;;4999971;28;20191;-73
2020/12/18 14:09:24;;;;;;;3.60;1.60;;;;;;;;;;4997790;28;20210;-73
2020/12/18 14:11:49;;;;;;;5.23;2.37;;;;;;;;;;5001370;28;20203;-73
2020/12/18 14:14:15;;;;;;;4.57;1.70;;;;;;;;;;4999119;28;20696;-73
2020/12/18 14:16:40;;;;;;;4.73;1.70;;;;;;;;;;4981135;28;20182;-74
2020/12/18 14:19:05;;;;;;;3.97;2.67;;;;;;;;;;5004871;28;20198;-73
2020/12/18 14:21:30;;;;;;;3.53;1.63;;;;;;;;;;4998282;28;20218;-74